Hlavní strana
METAR-TAF:

METAR-TAF

Letiště :

Linköping, Švédsko

zeměpisná šířka: 58-24N, zeměpisná délka: 015-41E, výška: 52 m

Aktuální stav počasí

Zpráva byla vytvořena před 30 minutami, v 10:50 UTC
vítr z různých směrů 1 kt
Teplota -1°C
Vlhkost vzduchu 100%
Tlak 1010 hPa
Viditelnost: 7000 m
Skoro jasno ve výšce 500 ft
Polojasno ve výšce 2200 ft
Zataženo ve výšce 4600 ft
kouřmo

METAR: ESSL 221050Z VRB01KT 7000 BR FEW005 SCT022 OVC046 M01/M01 Q1010

Čas: 12:20 (11:20 UTC)

Předpověď počasí

Zpráva byla vytvořena před 50 minutami, v 10:30 UTC
Předpověď platná od 22 v 10 UTC do 22 v 18 UTC
Jihojihovýchodní vítr 2 kt
Viditelnost: 8000 m
Oblačno až skoro zataženo ve výšce 3500 ft
Dočasný
od 22 v 10 UTC do 22 v 18 UTC
Viditelnost: 3000 m
Oblačno až skoro zataženo ve výšce 500 ft
(slabý) sněhová zrna, kouřmo

TAF: ESSL 221030Z 2210/2218 15002KT 8000 BKN035 TEMPO 2210/2218 3000 -SG BR BKN005 RMK MIL

Stav a předpovědi počasí z více než 4 000 letišť (zprávy METAR a TAF).

Červené a žluté tečky na mapě představují dostupné meteorologické stanice.

Když kurzor umístíte na tečku, zobrazí se název stanice.

Pak kliknutím zobrazíte stav a předpověď počasí.

Chcete-li změnit mapu, kliknutím na zelené tlačítko se znaménkem +mapu přiblížíte, kliknutím na zelené tlačítko se znaménkem – mapu oddálíte a kliknutím na zelené šipky přejdete na sousední mapy.


METAR-TAF: